<?xml version='1.0' encoding='UTF-8'?>
<gpx xmlns="http://www.topografix.com/GPX/1/1" creator="www.balnam.be" version="1.1" xmlns:xsi="http://www.w3.org/2001/XMLSchema-instance" xsi:schemaLocation="http://www.topografix.com/GPX/1/1 http://www.topografix.com/GPX/1/1/gpx.xsd">
<trk>
<name>lsosoi7</name>
<cmt>v</cmt>
<desc>Stoumont Sentier n°i7 </desc>
<link href="https://chemins.be/stoumont/sentier/i7"/><trkseg>
<trkpt lat="50.404154" lon="5.824996"><time>2026-05-03T07:31:48Z</time></trkpt>
<trkpt lat="50.403087" lon="5.825769"><time>2026-05-03T07:41:48Z</time></trkpt>
<trkpt lat="50.402140" lon="5.825254"><time>2026-05-03T07:51:48Z</time></trkpt>
<trkpt lat="50.401648" lon="5.824112"><time>2026-05-03T08:01:48Z</time></trkpt>
<trkpt lat="50.401566" lon="5.822747"><time>2026-05-03T08:11:48Z</time></trkpt>
<trkpt lat="50.401918" lon="5.820919"><time>2026-05-03T08:21:48Z</time></trkpt>
<trkpt lat="50.403176" lon="5.818988"><time>2026-05-03T08:31:48Z</time></trkpt>
<trkpt lat="50.403584" lon="5.817448"><time>2026-05-03T08:41:48Z</time></trkpt>
<trkpt lat="50.403395" lon="5.815834"><time>2026-05-03T08:51:48Z</time></trkpt>
<trkpt lat="50.402872" lon="5.814530"><time>2026-05-03T09:01:48Z</time></trkpt>
<trkpt lat="50.399692" lon="5.810968"><time>2026-05-03T09:11:48Z</time></trkpt>
<trkpt lat="50.399237" lon="5.808796"><time>2026-05-03T09:21:48Z</time></trkpt>
<trkpt lat="50.399214" lon="5.807696"><time>2026-05-03T09:31:48Z</time></trkpt>
<trkpt lat="50.399932" lon="5.805861"><time>2026-05-03T09:41:48Z</time></trkpt>
<trkpt lat="50.399870" lon="5.804552"><time>2026-05-03T09:51:48Z</time></trkpt>
<trkpt lat="50.397951" lon="5.802530"><time>2026-05-03T10:01:48Z</time></trkpt>
<trkpt lat="50.397910" lon="5.801758"><time>2026-05-03T10:11:48Z</time></trkpt>
<trkpt lat="50.397989" lon="5.801183"><time>2026-05-03T10:21:48Z</time></trkpt>
<trkpt lat="50.398831" lon="5.798115"><time>2026-05-03T10:31:48Z</time></trkpt>
<trkpt lat="50.399966" lon="5.797761"><time>2026-05-03T10:41:48Z</time></trkpt>
<trkpt lat="50.401313" lon="5.798147"><time>2026-05-03T10:51:48Z</time></trkpt>
<trkpt lat="50.403385" lon="5.797783"><time>2026-05-03T11:01:48Z</time></trkpt>
<trkpt lat="50.404883" lon="5.798297"><time>2026-05-03T11:11:48Z</time></trkpt>
<trkpt lat="50.407563" lon="5.797783"><time>2026-05-03T11:21:48Z</time></trkpt>
<trkpt lat="50.408473" lon="5.797654"><time>2026-05-03T11:31:48Z</time></trkpt>
</trkseg>
</trk>
</gpx>